This is the latest recevied weather packets stored in our database for station/object DJ2FR. If no packets are shown the sender has not sent any weather packets the latest 1 day(s).
| Time | Temp. | Humidity | Pressure | Rain* | Wind** | Luminosity | Snow |
|---|---|---|---|---|---|---|---|
| 1778415351 | 43.89° C | 14% | 1013.5 hPa | - | - | - | - |
| 1778414747 | 45° C | 13% | 1014.4 hPa | - | - | - | - |
| 1778414143 | 46.67° C | 13% | 1014.9 hPa | - | - | - | - |
| 1778412936 | 50° C | 10% | 1015.5 hPa | - | - | - | - |
| 1778412331 | 52.22° C | 9% | 1014 hPa | - | - | - | - |
| 1778411727 | 55° C | 7% | 1013.7 hPa | - | - | - | - |
| 1778411123 | 57.22° C | 6% | 1014.2 hPa | - | - | - | - |
| 1778410519 | 58.33° C | 6% | 1014.8 hPa | - | - | - | - |
| 1778409915 | 55° C | 7% | 1015.2 hPa | - | - | - | - |
| 1778409311 | 57.22° C | 6% | 1015.2 hPa | - | - | - | - |
| 1778408707 | 58.89° C | 6% | 1014.6 hPa | - | - | - | - |
| 1778408103 | 56.67° C | 6% | 1016.1 hPa | - | - | - | - |
| 1778407499 | 57.22° C | 6% | 1017.6 hPa | - | - | - | - |
| 1778406896 | 60° C | 5% | 1016.4 hPa | - | - | - | - |
| 1778406291 | 60° C | 5% | 1017.3 hPa | - | - | - | - |
| 1778405687 | 57.78° C | 6% | 1015.9 hPa | - | - | - | - |
| 1778405083 | 56.67° C | 6% | 1016.7 hPa | - | - | - | - |
| 1778404479 | 56.67° C | 6% | 1016.3 hPa | - | - | - | - |
| 1778403875 | 55.56° C | 7% | 1016.8 hPa | - | - | - | - |
| 1778403271 | 52.78° C | 8% | 1015.8 hPa | - | - | - | - |
| 1778402063 | 48.33° C | 11% | 1017.2 hPa | - | - | - | - |
| 1778400856 | 50.56° C | 10% | 1017.5 hPa | - | - | - | - |
| 1778400251 | 51.11° C | 9% | 1017.1 hPa | - | - | - | - |
| 1778399647 | 50° C | 10% | 1017.8 hPa | - | - | - | - |
| 1778399043 | 48.33° C | 11% | 1017 hPa | - | - | - | - |
* Rain since midnight (hover to see other rain measurements)
** Current wind speed in m/s (hover to see current wind gust speed)